sensor_id;sensor_type;location;lat;lon;timestamp;P1;durP1;ratioP1;P2;durP2;ratioP2
15340;SDS011;7770;52.158;5.372;2023-05-02T00:02:01;41.60;;;29.00;;
15340;SDS011;7770;52.158;5.372;2023-05-02T00:04:48;42.07;;;28.03;;
15340;SDS011;7770;52.158;5.372;2023-05-02T00:07:34;40.50;;;28.37;;
15340;SDS011;7770;52.158;5.372;2023-05-02T00:10:20;35.80;;;25.00;;
15340;SDS011;7770;52.158;5.372;2023-05-02T00:13:06;34.03;;;23.63;;
15340;SDS011;7770;52.158;5.372;2023-05-02T00:15:52;30.37;;;22.03;;
15340;SDS011;7770;52.158;5.372;2023-05-02T00:18:38;26.70;;;19.17;;
15340;SDS011;7770;52.158;5.372;2023-05-02T00:21:24;26.83;;;18.00;;
15340;SDS011;7770;52.158;5.372;2023-05-02T00:24:13;23.67;;;17.63;;
15340;SDS011;7770;52.158;5.372;2023-05-02T00:27:01;24.63;;;16.67;;
15340;SDS011;7770;52.158;5.372;2023-05-02T00:29:48;22.50;;;16.57;;
15340;SDS011;7770;52.158;5.372;2023-05-02T00:32:34;19.57;;;14.63;;
15340;SDS011;7770;52.158;5.372;2023-05-02T00:35:20;20.40;;;14.07;;
15340;SDS011;7770;52.158;5.372;2023-05-02T00:38:06;21.10;;;14.10;;
15340;SDS011;7770;52.158;5.372;2023-05-02T00:40:52;20.30;;;13.93;;
15340;SDS011;7770;52.158;5.372;2023-05-02T00:43:38;20.80;;;13.63;;
15340;SDS011;7770;52.158;5.372;2023-05-02T00:46:25;19.50;;;12.97;;
15340;SDS011;7770;52.158;5.372;2023-05-02T00:49:11;18.60;;;12.73;;
15340;SDS011;7770;52.158;5.372;2023-05-02T00:51:57;20.37;;;14.30;;
15340;SDS011;7770;52.158;5.372;2023-05-02T00:54:43;18.07;;;13.47;;
15340;SDS011;7770;52.158;5.372;2023-05-02T00:57:29;22.37;;;13.17;;
15340;SDS011;7770;52.158;5.372;2023-05-02T01:00:17;18.33;;;12.03;;
15340;SDS011;7770;52.158;5.372;2023-05-02T01:03:05;17.47;;;11.90;;
15340;SDS011;7770;52.158;5.372;2023-05-02T01:06:16;15.93;;;11.23;;
15340;SDS011;7770;52.158;5.372;2023-05-02T01:12:31;16.33;;;9.60;;
15340;SDS011;7770;52.158;5.372;2023-05-02T01:15:27;12.23;;;9.00;;
15340;SDS011;7770;52.158;5.372;2023-05-02T01:18:17;10.90;;;7.27;;
15340;SDS011;7770;52.158;5.372;2023-05-02T01:21:08;10.13;;;6.50;;
15340;SDS011;7770;52.158;5.372;2023-05-02T01:24:11;11.27;;;6.23;;
15340;SDS011;7770;52.158;5.372;2023-05-02T01:30:05;7.03;;;5.83;;
15340;SDS011;7770;52.158;5.372;2023-05-02T01:32:54;7.60;;;5.10;;
15340;SDS011;7770;52.158;5.372;2023-05-02T01:35:42;9.87;;;5.53;;
15340;SDS011;7770;52.158;5.372;2023-05-02T01:38:30;8.50;;;5.70;;
15340;SDS011;7770;52.158;5.372;2023-05-02T01:41:19;14.23;;;5.70;;
15340;SDS011;7770;52.158;5.372;2023-05-02T01:44:06;10.83;;;6.40;;
15340;SDS011;7770;52.158;5.372;2023-05-02T01:46:53;11.73;;;6.77;;
15340;SDS011;7770;52.158;5.372;2023-05-02T01:49:40;11.23;;;6.57;;
15340;SDS011;7770;52.158;5.372;2023-05-02T01:52:28;10.53;;;6.27;;
15340;SDS011;7770;52.158;5.372;2023-05-02T01:55:14;10.87;;;6.50;;
15340;SDS011;7770;52.158;5.372;2023-05-02T01:58:02;11.83;;;6.07;;
15340;SDS011;7770;52.158;5.372;2023-05-02T02:00:50;10.43;;;5.83;;
15340;SDS011;7770;52.158;5.372;2023-05-02T02:03:38;9.80;;;5.17;;
15340;SDS011;7770;52.158;5.372;2023-05-02T02:06:24;9.67;;;5.73;;
15340;SDS011;7770;52.158;5.372;2023-05-02T02:09:11;12.27;;;6.03;;
15340;SDS011;7770;52.158;5.372;2023-05-02T02:12:04;13.03;;;5.57;;
15340;SDS011;7770;52.158;5.372;2023-05-02T02:14:55;10.80;;;5.23;;
15340;SDS011;7770;52.158;5.372;2023-05-02T02:17:48;10.90;;;5.53;;
15340;SDS011;7770;52.158;5.372;2023-05-02T02:20:58;7.50;;;5.20;;
15340;SDS011;7770;52.158;5.372;2023-05-02T02:23:46;7.37;;;4.80;;
15340;SDS011;7770;52.158;5.372;2023-05-02T02:26:35;11.37;;;4.63;;
15340;SDS011;7770;52.158;5.372;2023-05-02T02:29:22;8.00;;;4.47;;
15340;SDS011;7770;52.158;5.372;2023-05-02T02:32:08;12.20;;;4.10;;
15340;SDS011;7770;52.158;5.372;2023-05-02T02:34:54;7.10;;;3.70;;
15340;SDS011;7770;52.158;5.372;2023-05-02T02:37:40;8.90;;;3.70;;
15340;SDS011;7770;52.158;5.372;2023-05-02T02:40:44;8.40;;;3.70;;
15340;SDS011;7770;52.158;5.372;2023-05-02T02:43:41;8.87;;;3.90;;
15340;SDS011;7770;52.158;5.372;2023-05-02T02:46:46;10.17;;;3.90;;
15340;SDS011;7770;52.158;5.372;2023-05-02T02:50:01;7.53;;;3.30;;
15340;SDS011;7770;52.158;5.372;2023-05-02T02:52:51;7.17;;;3.33;;
15340;SDS011;7770;52.158;5.372;2023-05-02T02:55:44;8.10;;;3.80;;
15340;SDS011;7770;52.158;5.372;2023-05-02T02:58:56;5.87;;;3.50;;
15340;SDS011;7770;52.158;5.372;2023-05-02T03:01:55;6.83;;;3.30;;
15340;SDS011;7770;52.158;5.372;2023-05-02T03:04:57;6.63;;;3.60;;
15340;SDS011;7770;52.158;5.372;2023-05-02T03:07:44;6.23;;;3.27;;
15340;SDS011;7770;52.158;5.372;2023-05-02T03:10:30;6.90;;;3.00;;
15340;SDS011;7770;52.158;5.372;2023-05-02T03:13:18;8.27;;;3.67;;
15340;SDS011;7770;52.158;5.372;2023-05-02T03:16:46;6.77;;;3.23;;
15340;SDS011;7770;52.158;5.372;2023-05-02T03:19:17;7.00;;;3.50;;
15340;SDS011;7770;52.158;5.372;2023-05-02T03:22:03;7.33;;;3.77;;
15340;SDS011;7770;52.158;5.372;2023-05-02T03:24:49;8.93;;;3.50;;
15340;SDS011;7770;52.158;5.372;2023-05-02T03:27:36;10.07;;;3.83;;
15340;SDS011;7770;52.158;5.372;2023-05-02T03:30:22;8.87;;;3.90;;
15340;SDS011;7770;52.158;5.372;2023-05-02T03:33:08;5.60;;;3.50;;
15340;SDS011;7770;52.158;5.372;2023-05-02T03:35:54;10.23;;;3.90;;
15340;SDS011;7770;52.158;5.372;2023-05-02T03:38:40;7.93;;;3.50;;
15340;SDS011;7770;52.158;5.372;2023-05-02T03:41:26;10.27;;;4.30;;
15340;SDS011;7770;52.158;5.372;2023-05-02T03:44:12;9.13;;;3.73;;
15340;SDS011;7770;52.158;5.372;2023-05-02T03:46:58;10.27;;;3.60;;
15340;SDS011;7770;52.158;5.372;2023-05-02T03:49:44;9.67;;;3.60;;
15340;SDS011;7770;52.158;5.372;2023-05-02T03:52:32;7.27;;;4.00;;
15340;SDS011;7770;52.158;5.372;2023-05-02T03:55:18;14.03;;;4.47;;
15340;SDS011;7770;52.158;5.372;2023-05-02T03:58:06;11.27;;;4.13;;
15340;SDS011;7770;52.158;5.372;2023-05-02T04:00:52;9.07;;;4.10;;
15340;SDS011;7770;52.158;5.372;2023-05-02T04:03:38;10.93;;;4.50;;
15340;SDS011;7770;52.158;5.372;2023-05-02T04:06:24;12.40;;;4.93;;
15340;SDS011;7770;52.158;5.372;2023-05-02T04:09:10;8.23;;;4.50;;
15340;SDS011;7770;52.158;5.372;2023-05-02T04:11:56;12.27;;;4.17;;
15340;SDS011;7770;52.158;5.372;2023-05-02T04:14:42;7.00;;;4.40;;
15340;SDS011;7770;52.158;5.372;2023-05-02T04:17:28;10.77;;;4.17;;
15340;SDS011;7770;52.158;5.372;2023-05-02T04:20:14;8.10;;;4.57;;
15340;SDS011;7770;52.158;5.372;2023-05-02T04:23:00;9.50;;;4.23;;
15340;SDS011;7770;52.158;5.372;2023-05-02T04:26:04;5.93;;;3.83;;
15340;SDS011;7770;52.158;5.372;2023-05-02T04:28:50;6.87;;;3.70;;
15340;SDS011;7770;52.158;5.372;2023-05-02T04:31:36;7.87;;;3.90;;
15340;SDS011;7770;52.158;5.372;2023-05-02T04:34:22;8.87;;;4.00;;
15340;SDS011;7770;52.158;5.372;2023-05-02T04:37:08;6.63;;;3.93;;
15340;SDS011;7770;52.158;5.372;2023-05-02T04:39:54;11.83;;;4.07;;
15340;SDS011;7770;52.158;5.372;2023-05-02T04:42:40;11.00;;;4.67;;
15340;SDS011;7770;52.158;5.372;2023-05-02T04:45:26;9.07;;;4.47;;
15340;SDS011;7770;52.158;5.372;2023-05-02T04:48:12;14.03;;;4.30;;
15340;SDS011;7770;52.158;5.372;2023-05-02T04:50:58;11.93;;;4.13;;
15340;SDS011;7770;52.158;5.372;2023-05-02T04:53:44;7.87;;;4.47;;
15340;SDS011;7770;52.158;5.372;2023-05-02T04:56:31;12.60;;;4.63;;
15340;SDS011;7770;52.158;5.372;2023-05-02T04:59:17;12.53;;;4.60;;
15340;SDS011;7770;52.158;5.372;2023-05-02T05:02:03;13.00;;;4.77;;
15340;SDS011;7770;52.158;5.372;2023-05-02T05:04:49;10.70;;;4.60;;
15340;SDS011;7770;52.158;5.372;2023-05-02T05:07:35;13.83;;;4.57;;
15340;SDS011;7770;52.158;5.372;2023-05-02T05:10:21;11.40;;;4.67;;
15340;SDS011;7770;52.158;5.372;2023-05-02T05:13:07;13.93;;;4.60;;
15340;SDS011;7770;52.158;5.372;2023-05-02T05:15:53;14.50;;;5.13;;
15340;SDS011;7770;52.158;5.372;2023-05-02T05:18:39;13.27;;;5.40;;
15340;SDS011;7770;52.158;5.372;2023-05-02T05:21:25;12.00;;;4.83;;
15340;SDS011;7770;52.158;5.372;2023-05-02T05:24:11;13.53;;;5.23;;
15340;SDS011;7770;52.158;5.372;2023-05-02T05:26:57;12.77;;;5.13;;
15340;SDS011;7770;52.158;5.372;2023-05-02T05:29:43;13.70;;;5.00;;
15340;SDS011;7770;52.158;5.372;2023-05-02T05:32:29;14.63;;;5.67;;
15340;SDS011;7770;52.158;5.372;2023-05-02T05:35:17;17.23;;;6.13;;
15340;SDS011;7770;52.158;5.372;2023-05-02T05:38:03;15.13;;;5.67;;
15340;SDS011;7770;52.158;5.372;2023-05-02T05:40:49;11.67;;;5.07;;
15340;SDS011;7770;52.158;5.372;2023-05-02T05:43:35;12.40;;;5.60;;
15340;SDS011;7770;52.158;5.372;2023-05-02T05:46:21;11.17;;;5.53;;
15340;SDS011;7770;52.158;5.372;2023-05-02T05:49:07;14.23;;;5.23;;
15340;SDS011;7770;52.158;5.372;2023-05-02T05:51:53;9.53;;;4.80;;
15340;SDS011;7770;52.158;5.372;2023-05-02T05:54:40;10.23;;;4.47;;
15340;SDS011;7770;52.158;5.372;2023-05-02T05:57:26;9.90;;;4.20;;
15340;SDS011;7770;52.158;5.372;2023-05-02T06:00:12;9.97;;;4.27;;
15340;SDS011;7770;52.158;5.372;2023-05-02T06:02:58;11.97;;;4.00;;
15340;SDS011;7770;52.158;5.372;2023-05-02T06:05:44;11.13;;;4.13;;
15340;SDS011;7770;52.158;5.372;2023-05-02T06:08:30;11.87;;;4.50;;
15340;SDS011;7770;52.158;5.372;2023-05-02T06:11:16;11.50;;;4.50;;
15340;SDS011;7770;52.158;5.372;2023-05-02T06:14:02;8.60;;;4.37;;
15340;SDS011;7770;52.158;5.372;2023-05-02T06:16:48;11.57;;;4.23;;
15340;SDS011;7770;52.158;5.372;2023-05-02T06:19:34;12.20;;;4.30;;
15340;SDS011;7770;52.158;5.372;2023-05-02T06:22:20;11.93;;;4.23;;
15340;SDS011;7770;52.158;5.372;2023-05-02T06:25:07;9.77;;;3.90;;
15340;SDS011;7770;52.158;5.372;2023-05-02T06:27:53;11.60;;;4.13;;
15340;SDS011;7770;52.158;5.372;2023-05-02T06:30:39;9.47;;;3.60;;
15340;SDS011;7770;52.158;5.372;2023-05-02T06:33:25;6.40;;;3.50;;
15340;SDS011;7770;52.158;5.372;2023-05-02T06:36:16;9.37;;;3.70;;
15340;SDS011;7770;52.158;5.372;2023-05-02T06:39:02;9.53;;;4.00;;
15340;SDS011;7770;52.158;5.372;2023-05-02T06:41:48;6.40;;;3.70;;
15340;SDS011;7770;52.158;5.372;2023-05-02T06:44:34;10.73;;;3.57;;
15340;SDS011;7770;52.158;5.372;2023-05-02T06:47:20;5.93;;;3.40;;
15340;SDS011;7770;52.158;5.372;2023-05-02T06:50:08;8.47;;;3.23;;
15340;SDS011;7770;52.158;5.372;2023-05-02T06:52:55;9.03;;;3.67;;
15340;SDS011;7770;52.158;5.372;2023-05-02T06:55:42;6.07;;;3.47;;
15340;SDS011;7770;52.158;5.372;2023-05-02T06:58:30;8.83;;;3.47;;
15340;SDS011;7770;52.158;5.372;2023-05-02T07:01:16;9.73;;;3.73;;
15340;SDS011;7770;52.158;5.372;2023-05-02T07:04:02;11.67;;;4.40;;
15340;SDS011;7770;52.158;5.372;2023-05-02T07:06:50;7.53;;;4.30;;
15340;SDS011;7770;52.158;5.372;2023-05-02T07:09:36;9.87;;;4.10;;
15340;SDS011;7770;52.158;5.372;2023-05-02T07:12:22;5.90;;;3.80;;
15340;SDS011;7770;52.158;5.372;2023-05-02T07:15:09;7.23;;;4.50;;
15340;SDS011;7770;52.158;5.372;2023-05-02T07:17:58;12.90;;;4.70;;
15340;SDS011;7770;52.158;5.372;2023-05-02T07:20:44;13.80;;;5.10;;
15340;SDS011;7770;52.158;5.372;2023-05-02T07:23:30;8.50;;;4.30;;
15340;SDS011;7770;52.158;5.372;2023-05-02T07:26:16;9.63;;;3.90;;
15340;SDS011;7770;52.158;5.372;2023-05-02T07:29:03;8.50;;;3.70;;
15340;SDS011;7770;52.158;5.372;2023-05-02T07:31:51;9.90;;;3.90;;
15340;SDS011;7770;52.158;5.372;2023-05-02T07:34:37;8.63;;;3.90;;
15340;SDS011;7770;52.158;5.372;2023-05-02T07:37:23;11.87;;;4.13;;
15340;SDS011;7770;52.158;5.372;2023-05-02T07:40:09;10.60;;;4.13;;
15340;SDS011;7770;52.158;5.372;2023-05-02T07:42:55;10.37;;;4.50;;
15340;SDS011;7770;52.158;5.372;2023-05-02T07:45:42;10.97;;;4.27;;
15340;SDS011;7770;52.158;5.372;2023-05-02T07:48:28;10.30;;;3.80;;
15340;SDS011;7770;52.158;5.372;2023-05-02T07:51:14;10.97;;;4.30;;
15340;SDS011;7770;52.158;5.372;2023-05-02T07:54:00;9.17;;;3.60;;
15340;SDS011;7770;52.158;5.372;2023-05-02T07:56:46;8.53;;;3.73;;
15340;SDS011;7770;52.158;5.372;2023-05-02T07:59:33;6.23;;;3.90;;
15340;SDS011;7770;52.158;5.372;2023-05-02T08:02:19;5.37;;;3.33;;
15340;SDS011;7770;52.158;5.372;2023-05-02T08:05:07;12.17;;;3.73;;
15340;SDS011;7770;52.158;5.372;2023-05-02T08:07:54;6.57;;;4.30;;
15340;SDS011;7770;52.158;5.372;2023-05-02T08:10:40;8.97;;;3.73;;
15340;SDS011;7770;52.158;5.372;2023-05-02T08:13:26;12.50;;;4.23;;
15340;SDS011;7770;52.158;5.372;2023-05-02T08:16:12;7.20;;;3.77;;
15340;SDS011;7770;52.158;5.372;2023-05-02T08:18:58;10.73;;;3.83;;
15340;SDS011;7770;52.158;5.372;2023-05-02T08:21:45;6.33;;;3.33;;
15340;SDS011;7770;52.158;5.372;2023-05-02T08:24:31;7.17;;;3.23;;
15340;SDS011;7770;52.158;5.372;2023-05-02T08:27:17;6.33;;;3.20;;
15340;SDS011;7770;52.158;5.372;2023-05-02T08:30:03;7.90;;;3.57;;
15340;SDS011;7770;52.158;5.372;2023-05-02T08:32:50;6.33;;;2.90;;
15340;SDS011;7770;52.158;5.372;2023-05-02T08:35:36;6.87;;;2.97;;
15340;SDS011;7770;52.158;5.372;2023-05-02T08:38:22;6.00;;;2.90;;
15340;SDS011;7770;52.158;5.372;2023-05-02T08:41:12;6.63;;;3.10;;
15340;SDS011;7770;52.158;5.372;2023-05-02T08:44:04;6.30;;;3.07;;
15340;SDS011;7770;52.158;5.372;2023-05-02T08:46:51;8.60;;;3.23;;
15340;SDS011;7770;52.158;5.372;2023-05-02T08:49:39;5.97;;;2.90;;
15340;SDS011;7770;52.158;5.372;2023-05-02T08:52:26;4.80;;;2.90;;
15340;SDS011;7770;52.158;5.372;2023-05-02T08:55:13;5.03;;;3.03;;
15340;SDS011;7770;52.158;5.372;2023-05-02T08:58:00;6.70;;;2.70;;
15340;SDS011;7770;52.158;5.372;2023-05-02T09:00:48;6.50;;;2.63;;
15340;SDS011;7770;52.158;5.372;2023-05-02T09:03:36;4.43;;;2.50;;
15340;SDS011;7770;52.158;5.372;2023-05-02T09:06:22;4.77;;;2.47;;
15340;SDS011;7770;52.158;5.372;2023-05-02T09:09:11;3.60;;;2.60;;
15340;SDS011;7770;52.158;5.372;2023-05-02T09:11:57;4.17;;;2.37;;
15340;SDS011;7770;52.158;5.372;2023-05-02T09:14:43;3.90;;;2.70;;
15340;SDS011;7770;52.158;5.372;2023-05-02T09:17:37;4.30;;;2.40;;
15340;SDS011;7770;52.158;5.372;2023-05-02T09:20:25;5.13;;;2.40;;
15340;SDS011;7770;52.158;5.372;2023-05-02T09:23:11;5.57;;;2.60;;
15340;SDS011;7770;52.158;5.372;2023-05-02T09:25:58;3.90;;;2.47;;
15340;SDS011;7770;52.158;5.372;2023-05-02T09:28:49;4.33;;;2.70;;
15340;SDS011;7770;52.158;5.372;2023-05-02T09:31:37;6.33;;;2.80;;
15340;SDS011;7770;52.158;5.372;2023-05-02T09:34:24;5.17;;;2.70;;
15340;SDS011;7770;52.158;5.372;2023-05-02T09:37:10;5.57;;;2.90;;
15340;SDS011;7770;52.158;5.372;2023-05-02T09:40:04;6.10;;;2.80;;
15340;SDS011;7770;52.158;5.372;2023-05-02T09:42:52;3.47;;;2.70;;
15340;SDS011;7770;52.158;5.372;2023-05-02T09:45:38;5.90;;;2.80;;
15340;SDS011;7770;52.158;5.372;2023-05-02T09:48:25;3.83;;;2.90;;
15340;SDS011;7770;52.158;5.372;2023-05-02T09:51:16;5.33;;;3.20;;
15340;SDS011;7770;52.158;5.372;2023-05-02T09:54:03;5.50;;;2.90;;
15340;SDS011;7770;52.158;5.372;2023-05-02T09:56:55;5.17;;;3.20;;
15340;SDS011;7770;52.158;5.372;2023-05-02T09:59:52;5.43;;;3.37;;
15340;SDS011;7770;52.158;5.372;2023-05-02T10:02:42;6.63;;;2.87;;
15340;SDS011;7770;52.158;5.372;2023-05-02T10:05:28;6.50;;;3.07;;
15340;SDS011;7770;52.158;5.372;2023-05-02T10:08:15;7.07;;;3.33;;
15340;SDS011;7770;52.158;5.372;2023-05-02T10:11:04;5.37;;;3.40;;
15340;SDS011;7770;52.158;5.372;2023-05-02T10:13:53;5.67;;;3.03;;
15340;SDS011;7770;52.158;5.372;2023-05-02T10:16:48;4.77;;;2.90;;
15340;SDS011;7770;52.158;5.372;2023-05-02T10:22:41;5.00;;;2.93;;
15340;SDS011;7770;52.158;5.372;2023-05-02T10:25:30;5.70;;;3.13;;
15340;SDS011;7770;52.158;5.372;2023-05-02T10:28:17;5.27;;;2.97;;
15340;SDS011;7770;52.158;5.372;2023-05-02T10:31:04;5.00;;;3.20;;
15340;SDS011;7770;52.158;5.372;2023-05-02T10:33:54;7.40;;;3.33;;
15340;SDS011;7770;52.158;5.372;2023-05-02T10:36:41;6.97;;;3.30;;
15340;SDS011;7770;52.158;5.372;2023-05-02T10:39:27;5.60;;;3.23;;
15340;SDS011;7770;52.158;5.372;2023-05-02T10:42:14;5.93;;;3.50;;
15340;SDS011;7770;52.158;5.372;2023-05-02T10:45:01;7.67;;;3.30;;
15340;SDS011;7770;52.158;5.372;2023-05-02T10:47:48;4.90;;;3.03;;
15340;SDS011;7770;52.158;5.372;2023-05-02T10:53:37;5.40;;;2.90;;
15340;SDS011;7770;52.158;5.372;2023-05-02T10:56:29;5.47;;;3.40;;
15340;SDS011;7770;52.158;5.372;2023-05-02T10:59:28;5.53;;;3.30;;
15340;SDS011;7770;52.158;5.372;2023-05-02T11:05:08;6.33;;;3.60;;
15340;SDS011;7770;52.158;5.372;2023-05-02T11:17:13;6.13;;;3.23;;
15340;SDS011;7770;52.158;5.372;2023-05-02T11:22:46;5.17;;;3.20;;
15340;SDS011;7770;52.158;5.372;2023-05-02T11:25:33;6.47;;;3.60;;
15340;SDS011;7770;52.158;5.372;2023-05-02T11:34:11;7.67;;;3.73;;
15340;SDS011;7770;52.158;5.372;2023-05-02T11:36:57;8.27;;;4.20;;
15340;SDS011;7770;52.158;5.372;2023-05-02T11:39:43;7.07;;;4.00;;
15340;SDS011;7770;52.158;5.372;2023-05-02T11:42:31;9.40;;;4.10;;
15340;SDS011;7770;52.158;5.372;2023-05-02T11:45:18;6.73;;;4.33;;
15340;SDS011;7770;52.158;5.372;2023-05-02T11:48:05;8.17;;;3.80;;
15340;SDS011;7770;52.158;5.372;2023-05-02T11:51:01;7.63;;;3.77;;
15340;SDS011;7770;52.158;5.372;2023-05-02T11:53:49;9.40;;;3.90;;
15340;SDS011;7770;52.158;5.372;2023-05-02T11:56:35;7.60;;;3.80;;
15340;SDS011;7770;52.158;5.372;2023-05-02T11:59:21;9.93;;;4.30;;
15340;SDS011;7770;52.158;5.372;2023-05-02T12:02:07;9.07;;;4.23;;
15340;SDS011;7770;52.158;5.372;2023-05-02T12:04:53;7.00;;;4.13;;
15340;SDS011;7770;52.158;5.372;2023-05-02T12:07:43;7.60;;;4.20;;
15340;SDS011;7770;52.158;5.372;2023-05-02T12:10:34;8.90;;;4.00;;
15340;SDS011;7770;52.158;5.372;2023-05-02T12:13:22;5.93;;;3.90;;
15340;SDS011;7770;52.158;5.372;2023-05-02T12:16:10;7.53;;;4.20;;
15340;SDS011;7770;52.158;5.372;2023-05-02T12:18:56;11.47;;;4.40;;
15340;SDS011;7770;52.158;5.372;2023-05-02T12:21:45;7.23;;;4.13;;
15340;SDS011;7770;52.158;5.372;2023-05-02T12:24:31;6.50;;;4.20;;
15340;SDS011;7770;52.158;5.372;2023-05-02T12:27:17;6.40;;;3.80;;
15340;SDS011;7770;52.158;5.372;2023-05-02T12:30:04;7.83;;;4.17;;
15340;SDS011;7770;52.158;5.372;2023-05-02T12:32:54;7.40;;;4.00;;
15340;SDS011;7770;52.158;5.372;2023-05-02T12:35:46;7.57;;;3.87;;
15340;SDS011;7770;52.158;5.372;2023-05-02T12:38:32;7.00;;;3.40;;
15340;SDS011;7770;52.158;5.372;2023-05-02T12:41:29;6.83;;;3.87;;
15340;SDS011;7770;52.158;5.372;2023-05-02T12:44:37;6.03;;;3.67;;
15340;SDS011;7770;52.158;5.372;2023-05-02T12:47:25;8.20;;;3.97;;
15340;SDS011;7770;52.158;5.372;2023-05-02T12:50:11;6.60;;;4.13;;
15340;SDS011;7770;52.158;5.372;2023-05-02T12:52:57;7.10;;;3.70;;
15340;SDS011;7770;52.158;5.372;2023-05-02T12:55:44;9.40;;;3.97;;
15340;SDS011;7770;52.158;5.372;2023-05-02T12:58:38;7.37;;;4.17;;
15340;SDS011;7770;52.158;5.372;2023-05-02T13:01:32;9.23;;;4.40;;
15340;SDS011;7770;52.158;5.372;2023-05-02T13:04:18;7.77;;;4.03;;
15340;SDS011;7770;52.158;5.372;2023-05-02T13:07:04;7.30;;;3.63;;
15340;SDS011;7770;52.158;5.372;2023-05-02T13:09:51;7.43;;;3.70;;
15340;SDS011;7770;52.158;5.372;2023-05-02T13:12:37;7.63;;;3.80;;
15340;SDS011;7770;52.158;5.372;2023-05-02T13:15:23;7.87;;;3.73;;
15340;SDS011;7770;52.158;5.372;2023-05-02T13:18:09;5.90;;;3.87;;
15340;SDS011;7770;52.158;5.372;2023-05-02T13:20:55;8.87;;;4.00;;
15340;SDS011;7770;52.158;5.372;2023-05-02T13:23:41;6.93;;;3.80;;
15340;SDS011;7770;52.158;5.372;2023-05-02T13:26:28;6.30;;;3.60;;
15340;SDS011;7770;52.158;5.372;2023-05-02T13:29:14;7.53;;;4.03;;
15340;SDS011;7770;52.158;5.372;2023-05-02T13:32:00;5.63;;;3.60;;
15340;SDS011;7770;52.158;5.372;2023-05-02T13:34:46;7.40;;;3.73;;
15340;SDS011;7770;52.158;5.372;2023-05-02T13:37:32;8.57;;;3.63;;
15340;SDS011;7770;52.158;5.372;2023-05-02T13:40:18;6.20;;;3.40;;
15340;SDS011;7770;52.158;5.372;2023-05-02T13:43:05;6.77;;;3.90;;
15340;SDS011;7770;52.158;5.372;2023-05-02T13:45:51;6.17;;;3.47;;
15340;SDS011;7770;52.158;5.372;2023-05-02T13:48:37;7.37;;;3.60;;
15340;SDS011;7770;52.158;5.372;2023-05-02T13:51:23;6.60;;;3.70;;
15340;SDS011;7770;52.158;5.372;2023-05-02T13:54:09;6.00;;;3.63;;
15340;SDS011;7770;52.158;5.372;2023-05-02T13:56:55;6.53;;;3.53;;
15340;SDS011;7770;52.158;5.372;2023-05-02T13:59:41;7.53;;;3.90;;
15340;SDS011;7770;52.158;5.372;2023-05-02T14:02:27;5.53;;;3.30;;
15340;SDS011;7770;52.158;5.372;2023-05-02T14:05:13;6.40;;;3.40;;
15340;SDS011;7770;52.158;5.372;2023-05-02T14:07:59;5.77;;;3.40;;
15340;SDS011;7770;52.158;5.372;2023-05-02T14:10:45;8.27;;;3.70;;
15340;SDS011;7770;52.158;5.372;2023-05-02T14:13:31;6.87;;;3.50;;
15340;SDS011;7770;52.158;5.372;2023-05-02T14:16:17;9.03;;;3.37;;
15340;SDS011;7770;52.158;5.372;2023-05-02T14:19:04;5.40;;;3.27;;
15340;SDS011;7770;52.158;5.372;2023-05-02T14:21:50;5.67;;;3.40;;
15340;SDS011;7770;52.158;5.372;2023-05-02T14:24:36;4.93;;;3.37;;
15340;SDS011;7770;52.158;5.372;2023-05-02T14:27:22;5.80;;;3.20;;
15340;SDS011;7770;52.158;5.372;2023-05-02T14:30:10;5.70;;;3.57;;
15340;SDS011;7770;52.158;5.372;2023-05-02T14:32:56;5.33;;;3.37;;
15340;SDS011;7770;52.158;5.372;2023-05-02T14:35:42;7.10;;;3.17;;
15340;SDS011;7770;52.158;5.372;2023-05-02T14:38:28;5.20;;;3.23;;
15340;SDS011;7770;52.158;5.372;2023-05-02T14:41:14;5.80;;;3.60;;
15340;SDS011;7770;52.158;5.372;2023-05-02T14:44:01;6.97;;;3.40;;
15340;SDS011;7770;52.158;5.372;2023-05-02T14:46:47;5.73;;;2.97;;
15340;SDS011;7770;52.158;5.372;2023-05-02T14:49:33;6.67;;;3.30;;
15340;SDS011;7770;52.158;5.372;2023-05-02T14:52:19;6.50;;;3.27;;
15340;SDS011;7770;52.158;5.372;2023-05-02T14:55:05;3.10;;;2.80;;
15340;SDS011;7770;52.158;5.372;2023-05-02T14:57:51;6.10;;;3.43;;
15340;SDS011;7770;52.158;5.372;2023-05-02T15:00:38;5.47;;;3.30;;
15340;SDS011;7770;52.158;5.372;2023-05-02T15:03:24;3.77;;;2.73;;
15340;SDS011;7770;52.158;5.372;2023-05-02T15:06:10;4.30;;;2.80;;
15340;SDS011;7770;52.158;5.372;2023-05-02T15:08:56;6.03;;;3.13;;
15340;SDS011;7770;52.158;5.372;2023-05-02T15:11:43;6.80;;;3.20;;
15340;SDS011;7770;52.158;5.372;2023-05-02T15:14:29;5.60;;;3.03;;
15340;SDS011;7770;52.158;5.372;2023-05-02T15:17:15;5.50;;;2.77;;
15340;SDS011;7770;52.158;5.372;2023-05-02T15:20:01;4.73;;;2.80;;
15340;SDS011;7770;52.158;5.372;2023-05-02T15:22:48;4.67;;;3.13;;
15340;SDS011;7770;52.158;5.372;2023-05-02T15:25:34;4.70;;;2.60;;
15340;SDS011;7770;52.158;5.372;2023-05-02T15:28:20;3.70;;;2.80;;
15340;SDS011;7770;52.158;5.372;2023-05-02T15:31:06;4.23;;;2.70;;
15340;SDS011;7770;52.158;5.372;2023-05-02T15:33:52;5.60;;;2.90;;
15340;SDS011;7770;52.158;5.372;2023-05-02T15:36:38;4.83;;;3.00;;
15340;SDS011;7770;52.158;5.372;2023-05-02T15:39:24;4.67;;;3.00;;
15340;SDS011;7770;52.158;5.372;2023-05-02T15:42:12;6.83;;;3.47;;
15340;SDS011;7770;52.158;5.372;2023-05-02T15:44:58;4.87;;;2.90;;
15340;SDS011;7770;52.158;5.372;2023-05-02T15:47:44;6.03;;;3.07;;
15340;SDS011;7770;52.158;5.372;2023-05-02T15:50:31;4.60;;;3.00;;
15340;SDS011;7770;52.158;5.372;2023-05-02T15:53:17;5.33;;;2.90;;
15340;SDS011;7770;52.158;5.372;2023-05-02T15:56:08;3.83;;;3.00;;
15340;SDS011;7770;52.158;5.372;2023-05-02T15:58:57;4.70;;;3.30;;
15340;SDS011;7770;52.158;5.372;2023-05-02T16:01:43;6.37;;;3.23;;
15340;SDS011;7770;52.158;5.372;2023-05-02T16:04:29;6.10;;;3.07;;
15340;SDS011;7770;52.158;5.372;2023-05-02T16:07:18;4.17;;;2.83;;
15340;SDS011;7770;52.158;5.372;2023-05-02T16:10:05;5.73;;;3.07;;
15340;SDS011;7770;52.158;5.372;2023-05-02T16:12:52;5.63;;;3.30;;
15340;SDS011;7770;52.158;5.372;2023-05-02T16:15:38;5.93;;;2.97;;
15340;SDS011;7770;52.158;5.372;2023-05-02T16:18:24;3.67;;;3.23;;
15340;SDS011;7770;52.158;5.372;2023-05-02T16:21:12;4.77;;;2.90;;
15340;SDS011;7770;52.158;5.372;2023-05-02T16:23:58;5.17;;;2.60;;
15340;SDS011;7770;52.158;5.372;2023-05-02T16:26:44;5.13;;;2.80;;
15340;SDS011;7770;52.158;5.372;2023-05-02T16:29:31;8.57;;;3.17;;
15340;SDS011;7770;52.158;5.372;2023-05-02T16:32:17;9.00;;;2.77;;
15340;SDS011;7770;52.158;5.372;2023-05-02T16:35:03;7.47;;;2.90;;
15340;SDS011;7770;52.158;5.372;2023-05-02T16:37:51;5.00;;;2.70;;
15340;SDS011;7770;52.158;5.372;2023-05-02T16:40:38;5.03;;;2.60;;
15340;SDS011;7770;52.158;5.372;2023-05-02T16:43:25;7.33;;;2.93;;
15340;SDS011;7770;52.158;5.372;2023-05-02T16:46:11;5.03;;;2.80;;
15340;SDS011;7770;52.158;5.372;2023-05-02T16:48:57;4.77;;;2.43;;
15340;SDS011;7770;52.158;5.372;2023-05-02T16:51:43;5.03;;;2.90;;
15340;SDS011;7770;52.158;5.372;2023-05-02T16:54:29;4.30;;;2.70;;
15340;SDS011;7770;52.158;5.372;2023-05-02T16:57:15;4.07;;;2.63;;
15340;SDS011;7770;52.158;5.372;2023-05-02T17:00:05;4.53;;;2.80;;
15340;SDS011;7770;52.158;5.372;2023-05-02T17:02:54;4.50;;;3.00;;
15340;SDS011;7770;52.158;5.372;2023-05-02T17:05:41;6.90;;;2.80;;
15340;SDS011;7770;52.158;5.372;2023-05-02T17:08:27;5.33;;;2.60;;
15340;SDS011;7770;52.158;5.372;2023-05-02T17:11:13;6.50;;;2.90;;
15340;SDS011;7770;52.158;5.372;2023-05-02T17:14:01;4.07;;;2.70;;
15340;SDS011;7770;52.158;5.372;2023-05-02T17:16:47;4.47;;;2.30;;
15340;SDS011;7770;52.158;5.372;2023-05-02T17:19:33;3.57;;;2.60;;
15340;SDS011;7770;52.158;5.372;2023-05-02T17:22:20;3.80;;;2.60;;
15340;SDS011;7770;52.158;5.372;2023-05-02T17:25:06;4.37;;;2.53;;
15340;SDS011;7770;52.158;5.372;2023-05-02T17:27:53;4.50;;;2.57;;
15340;SDS011;7770;52.158;5.372;2023-05-02T17:30:39;3.90;;;2.60;;
15340;SDS011;7770;52.158;5.372;2023-05-02T17:33:26;6.70;;;2.60;;
15340;SDS011;7770;52.158;5.372;2023-05-02T17:36:12;4.93;;;2.60;;